createdAt,value
2022-09-17T00:01:25.197Z,6.65
2022-09-17T00:03:53.994Z,4.13
2022-09-17T00:06:21.229Z,3.70
2022-09-17T00:08:47.563Z,3.92
2022-09-17T00:11:21.365Z,4.10
2022-09-17T00:13:48.758Z,3.90
2022-09-17T00:16:23.550Z,3.70
2022-09-17T00:18:49.735Z,4.03
2022-09-17T00:21:19.840Z,3.70
2022-09-17T00:23:47.020Z,3.70
2022-09-17T00:26:14.276Z,4.20
2022-09-17T00:28:41.917Z,4.55
2022-09-17T00:31:09.491Z,3.80
2022-09-17T00:33:35.850Z,3.53
2022-09-17T00:36:03.227Z,3.50
2022-09-17T00:38:29.997Z,3.45
2022-09-17T00:40:56.896Z,4.07
2022-09-17T00:43:42.013Z,3.67
2022-09-17T00:46:40.312Z,4.63
2022-09-17T00:49:12.573Z,8.93
2022-09-17T00:51:45.558Z,7.30
2022-09-17T00:54:11.880Z,6.70
2022-09-17T00:56:42.045Z,5.70
2022-09-17T00:59:08.651Z,6.75
2022-09-17T01:01:35.566Z,6.45
2022-09-17T01:04:01.828Z,5.78
2022-09-17T01:07:09.223Z,6.03
2022-09-17T01:09:52.675Z,5.95
2022-09-17T01:12:53.619Z,5.75
2022-09-17T01:15:36.723Z,6.40
2022-09-17T01:18:15.310Z,6.72
2022-09-17T01:21:10.643Z,6.32
2022-09-17T01:23:55.599Z,6.03
2022-09-17T01:27:16.504Z,6.43
2022-09-17T01:30:22.705Z,6.28
2022-09-17T01:33:18.199Z,7.07
2022-09-17T01:36:02.034Z,6.80
2022-09-17T01:38:40.893Z,5.93
2022-09-17T01:41:13.868Z,6.22
2022-09-17T01:43:58.249Z,5.80
2022-09-17T01:46:32.691Z,5.57
2022-09-17T01:49:03.779Z,6.15
2022-09-17T01:51:37.481Z,5.50
2022-09-17T01:54:23.144Z,6.32
2022-09-17T01:56:56.734Z,6.50
2022-09-17T01:59:32.451Z,6.13
2022-09-17T02:02:13.735Z,5.82
2022-09-17T02:04:49.134Z,5.90
2022-09-17T02:07:22.945Z,7.07
2022-09-17T02:10:01.762Z,5.50
2022-09-17T02:12:35.812Z,5.18
2022-09-17T02:15:07.091Z,5.38
2022-09-17T02:17:44.532Z,5.47
2022-09-17T02:20:11.981Z,5.50
2022-09-17T02:22:48.794Z,5.05
2022-09-17T02:25:28.902Z,5.57
2022-09-17T02:28:30.159Z,5.25
2022-09-17T02:30:56.364Z,4.90
2022-09-17T02:33:23.906Z,5.07
2022-09-17T02:35:50.137Z,5.18
2022-09-17T02:38:25.589Z,5.60
2022-09-17T02:43:53.485Z,4.50
2022-09-17T02:46:46.230Z,6.30
2022-09-17T02:49:28.065Z,5.13
2022-09-17T02:52:20.345Z,5.80
2022-09-17T02:55:01.966Z,5.25
2022-09-17T02:57:38.135Z,5.40
2022-09-17T03:00:14.563Z,5.60
2022-09-17T03:03:02.924Z,6.55
2022-09-17T03:05:30.016Z,5.38
2022-09-17T03:07:57.294Z,5.38
2022-09-17T03:10:23.578Z,5.32
2022-09-17T03:12:49.769Z,6.15
2022-09-17T03:15:15.963Z,5.82
2022-09-17T03:17:42.052Z,5.25
2022-09-17T03:20:08.811Z,5.22
2022-09-17T03:22:35.758Z,5.40
2022-09-17T03:25:01.874Z,5.00
2022-09-17T03:27:27.982Z,4.88
2022-09-17T03:29:54.078Z,5.00
2022-09-17T03:32:20.187Z,4.75
2022-09-17T03:34:47.070Z,4.95
2022-09-17T03:37:13.662Z,4.82
2022-09-17T03:39:39.753Z,5.30
2022-09-17T03:42:06.522Z,5.85
2022-09-17T03:44:32.757Z,5.00
2022-09-17T03:46:59.126Z,5.30
2022-09-17T03:49:25.234Z,5.93
2022-09-17T03:51:51.391Z,6.55
2022-09-17T03:54:17.667Z,6.28
2022-09-17T03:56:43.743Z,5.60
2022-09-17T03:59:10.326Z,5.72
2022-09-17T04:01:36.630Z,5.63
2022-09-17T04:04:03.837Z,6.20
2022-09-17T04:06:29.924Z,6.40
2022-09-17T04:08:57.186Z,6.65
2022-09-17T04:11:23.504Z,6.20
2022-09-17T04:13:49.688Z,6.20
2022-09-17T04:16:16.101Z,6.13
2022-09-17T04:18:42.223Z,6.25
2022-09-17T04:21:08.303Z,6.38
2022-09-17T04:23:34.446Z,6.35
2022-09-17T04:26:00.536Z,6.50
2022-09-17T04:28:26.641Z,6.35
2022-09-17T04:30:52.788Z,6.28
2022-09-17T04:33:18.939Z,6.32
2022-09-17T04:35:45.407Z,6.50
2022-09-17T04:38:13.802Z,5.97
2022-09-17T04:40:41.632Z,6.65
2022-09-17T04:43:10.587Z,6.55
2022-09-17T04:45:36.784Z,6.45
2022-09-17T04:48:03.156Z,6.25
2022-09-17T04:50:29.238Z,6.38
2022-09-17T04:52:55.339Z,6.00
2022-09-17T04:55:21.640Z,5.88
2022-09-17T04:57:53.171Z,6.15
2022-09-17T05:00:21.292Z,5.57
2022-09-17T05:02:50.952Z,5.18
2022-09-17T05:05:18.356Z,4.97
2022-09-17T05:07:45.092Z,5.57
2022-09-17T05:10:13.795Z,5.10
2022-09-17T05:12:40.042Z,5.28
2022-09-17T05:15:06.597Z,5.63
2022-09-17T05:17:32.737Z,4.97
2022-09-17T05:19:58.828Z,4.70
2022-09-17T05:22:24.932Z,4.90
2022-09-17T05:24:51.015Z,5.32
2022-09-17T05:27:17.112Z,4.70
2022-09-17T05:29:43.201Z,5.20
2022-09-17T05:32:09.299Z,5.13
2022-09-17T05:34:35.724Z,4.80
2022-09-17T05:37:01.817Z,4.20
2022-09-17T05:39:28.870Z,4.47
2022-09-17T05:41:55.566Z,4.20
2022-09-17T05:44:22.121Z,4.85
2022-09-17T05:46:48.488Z,4.25
2022-09-17T05:49:15.188Z,5.07
2022-09-17T05:51:42.152Z,4.40
2022-09-17T05:54:08.493Z,5.13
2022-09-17T05:56:34.591Z,5.15
2022-09-17T05:59:00.763Z,4.55
2022-09-17T06:01:27.383Z,4.32
2022-09-17T06:03:54.708Z,4.18
2022-09-17T06:06:20.846Z,4.15
2022-09-17T06:08:46.987Z,4.28
2022-09-17T06:11:13.114Z,4.22
2022-09-17T06:13:39.203Z,4.07
2022-09-17T06:16:05.595Z,4.30
2022-09-17T06:18:31.979Z,4.07
2022-09-17T06:21:00.654Z,4.75
2022-09-17T06:23:27.717Z,4.88
2022-09-17T06:25:56.656Z,3.40
2022-09-17T06:28:22.790Z,4.25
2022-09-17T06:30:48.969Z,4.22
2022-09-17T06:33:15.445Z,4.00
2022-09-17T06:35:42.293Z,4.32
2022-09-17T06:38:08.387Z,3.92
2022-09-17T06:40:34.801Z,3.88
2022-09-17T06:43:00.921Z,4.53
2022-09-17T06:45:27.381Z,3.70
2022-09-17T06:47:53.616Z,3.95
2022-09-17T06:50:19.803Z,4.47
2022-09-17T06:52:53.110Z,3.25
2022-09-17T06:55:19.393Z,4.00
2022-09-17T06:57:46.344Z,4.05
2022-09-17T07:00:14.679Z,4.00
2022-09-17T07:02:40.864Z,3.47
2022-09-17T07:05:07.176Z,3.95
2022-09-17T07:07:35.758Z,4.13
2022-09-17T07:10:03.035Z,3.47
2022-09-17T07:12:29.140Z,3.72
2022-09-17T07:14:55.227Z,3.40
2022-09-17T07:17:21.612Z,3.42
2022-09-17T07:19:47.692Z,3.45
2022-09-17T07:22:14.226Z,4.10
2022-09-17T07:24:40.312Z,4.07
2022-09-17T07:27:06.413Z,3.40
2022-09-17T07:29:32.723Z,4.10
2022-09-17T07:31:59.817Z,3.85
2022-09-17T07:34:28.156Z,3.05
2022-09-17T07:36:54.307Z,3.88
2022-09-17T07:39:20.414Z,3.38
2022-09-17T07:41:46.519Z,3.38
2022-09-17T07:44:12.612Z,3.47
2022-09-17T07:46:38.820Z,4.13
2022-09-17T07:49:05.007Z,3.95
2022-09-17T07:51:31.212Z,3.40
2022-09-17T07:53:59.365Z,4.05
2022-09-17T07:56:27.096Z,3.42
2022-09-17T07:58:53.344Z,3.63
2022-09-17T08:01:22.673Z,3.40
2022-09-17T08:03:51.632Z,3.92
2022-09-17T08:06:23.590Z,3.60
2022-09-17T08:08:50.343Z,3.30
2022-09-17T08:11:38.081Z,3.30
2022-09-17T08:14:05.647Z,4.22
2022-09-17T08:16:31.887Z,3.95
2022-09-17T08:18:58.454Z,3.65
2022-09-17T08:21:24.970Z,3.83
2022-09-17T08:23:51.095Z,3.35
2022-09-17T08:26:22.904Z,3.50
2022-09-17T08:28:51.524Z,4.10
2022-09-17T08:31:19.504Z,3.92
2022-09-17T08:33:46.704Z,4.43
2022-09-17T08:36:14.628Z,3.35
2022-09-17T08:38:41.607Z,3.88
2022-09-17T08:41:10.578Z,3.25
2022-09-17T08:43:46.893Z,3.53
2022-09-17T08:46:13.272Z,3.58
2022-09-17T08:48:56.880Z,4.70
2022-09-17T08:51:46.520Z,2.85
2022-09-17T08:54:25.810Z,4.05
2022-09-17T08:57:15.651Z,3.25
2022-09-17T08:59:58.657Z,3.25
2022-09-17T09:02:50.183Z,3.50
2022-09-17T09:05:36.232Z,4.03
2022-09-17T09:08:22.262Z,2.90
2022-09-17T09:10:55.819Z,3.03
2022-09-17T09:13:25.426Z,3.25
2022-09-17T09:16:00.188Z,3.15
2022-09-17T09:18:30.793Z,3.25
2022-09-17T09:21:29.342Z,3.30
2022-09-17T09:24:17.089Z,3.58
2022-09-17T09:26:57.836Z,3.15
2022-09-17T09:29:48.164Z,8.65
2022-09-17T09:32:40.378Z,2.60
2022-09-17T09:35:16.628Z,2.42
2022-09-17T09:37:59.310Z,3.13
2022-09-17T09:40:46.720Z,2.47
2022-09-17T09:43:32.627Z,2.45
2022-09-17T09:46:31.269Z,2.95
2022-09-17T09:49:22.838Z,3.05
2022-09-17T09:52:03.047Z,7.38
2022-09-17T09:54:59.540Z,2.38
2022-09-17T09:57:40.657Z,2.80
2022-09-17T10:00:29.734Z,3.70
2022-09-17T16:14:31.479Z,1.85
2022-09-17T16:16:59.624Z,2.35
2022-09-17T16:19:26.125Z,1.95
2022-09-17T16:21:52.219Z,1.60
2022-09-17T16:24:18.327Z,1.67
2022-09-17T16:26:44.465Z,3.55
2022-09-17T16:29:17.178Z,1.40
2022-09-17T16:31:44.768Z,1.95
2022-09-17T16:34:10.947Z,1.35
2022-09-17T16:36:37.057Z,2.30
2022-09-17T16:39:03.251Z,2.25
2022-09-17T16:41:29.347Z,2.13
2022-09-17T16:43:55.463Z,2.13
2022-09-17T16:46:21.595Z,1.70
2022-09-17T16:48:51.103Z,1.70
2022-09-17T16:51:17.483Z,2.35
2022-09-17T16:53:43.587Z,2.78
2022-09-17T16:56:14.768Z,2.10
2022-09-17T16:58:41.786Z,2.00
2022-09-17T17:01:15.467Z,2.20
2022-09-17T17:03:42.634Z,2.97
2022-09-17T17:06:22.194Z,2.80
2022-09-17T17:08:49.006Z,3.22
2022-09-17T17:11:15.166Z,3.33
2022-09-17T17:13:44.589Z,2.10
2022-09-17T17:16:12.981Z,3.42
2022-09-17T17:18:42.278Z,2.67
2022-09-17T17:21:10.721Z,2.20
2022-09-17T17:23:36.915Z,2.45
2022-09-17T17:26:03.887Z,2.60
2022-09-17T17:28:36.543Z,2.80
2022-09-17T17:31:05.641Z,2.70
2022-09-17T17:33:31.917Z,2.60
2022-09-17T17:36:07.479Z,2.70
2022-09-17T17:38:34.714Z,3.85
2022-09-17T17:41:06.676Z,2.00
2022-09-17T17:43:32.768Z,2.05
2022-09-17T17:45:58.865Z,2.53
2022-09-17T17:48:25.215Z,2.50
2022-09-17T17:50:55.915Z,2.40
2022-09-17T17:53:22.880Z,2.03
2022-09-17T17:55:57.834Z,2.33
2022-09-17T17:58:23.916Z,2.50
2022-09-17T18:00:50.000Z,2.63
2022-09-17T18:03:16.132Z,2.15
2022-09-17T18:05:42.273Z,2.20
2022-09-17T18:08:08.343Z,2.05
2022-09-17T18:10:34.439Z,1.80
2022-09-17T18:13:01.168Z,2.40
2022-09-17T18:15:27.260Z,2.78
2022-09-17T18:17:54.489Z,1.85
2022-09-17T18:20:22.168Z,2.30
2022-09-17T18:22:48.337Z,1.92
2022-09-17T18:25:14.472Z,2.83
2022-09-17T18:27:40.548Z,2.70
2022-09-17T18:30:07.327Z,2.10
2022-09-17T18:32:33.431Z,2.50
2022-09-17T18:34:59.519Z,2.22
2022-09-17T18:37:25.593Z,2.00
2022-09-17T18:39:59.691Z,2.35
2022-09-17T18:42:25.962Z,2.00
2022-09-17T18:44:52.042Z,2.38
2022-09-17T18:47:18.128Z,1.95
2022-09-17T18:49:44.224Z,1.90
2022-09-17T18:52:10.308Z,2.42
2022-09-17T18:54:36.400Z,2.50
2022-09-17T18:57:02.483Z,2.05
2022-09-17T18:59:28.567Z,2.45
2022-09-17T19:01:54.780Z,2.75
2022-09-17T19:04:21.477Z,3.17
2022-09-17T19:06:47.597Z,3.25
2022-09-17T19:09:13.691Z,2.00
2022-09-17T19:11:39.763Z,2.55
2022-09-17T19:14:05.972Z,4.75
2022-09-17T19:16:32.117Z,3.42
2022-09-17T19:18:58.272Z,2.22
2022-09-17T19:21:24.375Z,2.20
2022-09-17T19:23:52.215Z,1.95
2022-09-17T19:26:23.431Z,1.92
2022-09-17T19:29:03.442Z,2.10
2022-09-17T19:31:29.758Z,2.78
2022-09-17T19:33:56.842Z,2.05
2022-09-17T19:36:22.929Z,3.22
2022-09-17T19:38:49.338Z,2.80
2022-09-17T19:41:23.158Z,2.05
2022-09-17T19:43:54.571Z,2.45
2022-09-17T19:46:23.213Z,2.42
2022-09-17T19:48:54.091Z,2.58
2022-09-17T19:51:21.447Z,2.50
2022-09-17T19:53:47.741Z,2.50
2022-09-17T19:56:16.734Z,2.63
2022-09-17T19:58:43.343Z,2.60
2022-09-17T20:01:10.811Z,2.70
2022-09-17T20:03:41.444Z,2.45
2022-09-17T20:06:10.527Z,2.78
2022-09-17T20:08:41.555Z,2.10
2022-09-17T20:11:11.061Z,2.00
2022-09-17T20:13:37.303Z,2.40
2022-09-17T20:16:14.580Z,3.28
2022-09-17T20:18:40.808Z,2.05
2022-09-17T20:21:12.236Z,2.00
2022-09-17T20:23:38.535Z,2.40
2022-09-17T20:26:05.146Z,2.13
2022-09-17T20:28:32.036Z,1.90
2022-09-17T20:31:12.807Z,2.53
2022-09-17T20:33:39.009Z,2.20
2022-09-17T20:36:07.695Z,2.20
2022-09-17T20:41:21.399Z,2.35
2022-09-17T20:43:50.062Z,2.28
2022-09-17T20:46:17.322Z,2.30
2022-09-17T20:48:43.978Z,2.08
2022-09-17T20:51:24.629Z,2.30
2022-09-17T20:53:51.250Z,2.35
2022-09-17T20:56:20.392Z,2.10
2022-09-17T20:58:53.535Z,2.15
2022-09-17T21:01:23.308Z,2.08
2022-09-17T21:03:51.530Z,2.38
2022-09-17T21:06:19.635Z,2.05
2022-09-17T21:08:46.334Z,2.20
2022-09-17T21:11:13.475Z,1.77
2022-09-17T21:13:40.120Z,2.58
2022-09-17T21:16:07.167Z,2.00
2022-09-17T21:18:38.797Z,1.80
2022-09-17T21:21:08.318Z,2.90
2022-09-17T21:23:39.215Z,2.03
2022-09-17T21:26:06.513Z,2.10
2022-09-17T21:28:34.768Z,2.33
2022-09-17T21:31:05.809Z,2.00
2022-09-17T21:33:31.958Z,2.13
2022-09-17T21:36:09.297Z,1.90
2022-09-17T21:38:35.665Z,2.20
2022-09-17T21:41:11.019Z,2.33
2022-09-17T21:43:38.168Z,2.22
2022-09-17T21:46:07.554Z,1.98
2022-09-17T21:48:36.015Z,3.63
2022-09-17T21:51:10.702Z,2.20
2022-09-17T21:53:37.208Z,5.63
2022-09-17T21:56:06.042Z,2.75
2022-09-17T21:58:32.988Z,2.40
2022-09-17T22:01:06.874Z,2.33
2022-09-17T22:03:34.229Z,2.42
2022-09-17T22:06:10.172Z,2.58
2022-09-17T22:08:36.517Z,2.13
2022-09-17T22:11:08.696Z,2.20
2022-09-17T22:13:35.587Z,2.50
2022-09-17T22:16:04.978Z,2.40
2022-09-17T22:18:32.368Z,2.75
2022-09-17T22:20:59.146Z,2.78
2022-09-17T22:23:26.724Z,2.90
2022-09-17T22:26:03.343Z,2.65
2022-09-17T22:28:30.139Z,2.50
2022-09-17T22:30:56.498Z,3.10
2022-09-17T22:33:22.667Z,3.50
2022-09-17T22:35:48.740Z,3.10
2022-09-17T22:38:14.824Z,2.80
2022-09-17T22:40:40.902Z,3.30
2022-09-17T22:43:06.983Z,3.45
2022-09-17T22:45:33.069Z,3.35
2022-09-17T22:47:59.161Z,2.80
2022-09-17T22:50:25.241Z,3.53
2022-09-17T22:52:51.353Z,3.47
2022-09-17T22:55:17.439Z,3.10
2022-09-17T22:57:43.530Z,3.10
2022-09-17T23:00:10.371Z,3.10
2022-09-17T23:02:36.478Z,3.38
2022-09-17T23:05:02.589Z,3.25
2022-09-17T23:07:28.758Z,3.33
2022-09-17T23:09:54.848Z,3.35
2022-09-17T23:12:21.530Z,2.95
2022-09-17T23:14:47.856Z,3.33
2022-09-17T23:17:13.930Z,3.15
2022-09-17T23:19:40.010Z,2.80
2022-09-17T23:22:06.094Z,3.50
2022-09-17T23:24:34.417Z,3.10
2022-09-17T23:27:00.494Z,3.08
2022-09-17T23:29:26.578Z,3.60
2022-09-17T23:31:52.651Z,3.70
2022-09-17T23:34:18.793Z,3.22
2022-09-17T23:36:44.978Z,3.15
2022-09-17T23:39:11.670Z,3.05
2022-09-17T23:41:40.712Z,3.00
2022-09-17T23:44:14.545Z,3.45
2022-09-17T23:46:41.856Z,3.00
2022-09-17T23:49:08.033Z,3.17
2022-09-17T23:51:36.113Z,3.05
2022-09-17T23:54:02.672Z,3.75
2022-09-17T23:56:28.976Z,3.13
2022-09-17T23:58:56.909Z,3.10
